createdAt,value
2023-03-15T00:02:06.068Z,3.12
2023-03-15T00:04:51.783Z,3.14
2023-03-15T00:07:36.758Z,3.16
2023-03-15T00:10:22.237Z,3.17
2023-03-15T00:13:07.808Z,3.17
2023-03-15T00:15:58.278Z,3.15
2023-03-15T00:18:43.559Z,3.12
2023-03-15T00:21:31.561Z,3.11
2023-03-15T00:24:16.947Z,3.12
2023-03-15T00:27:02.001Z,3.16
2023-03-15T00:29:47.314Z,3.16
2023-03-15T00:32:32.580Z,3.13
2023-03-15T00:35:18.317Z,3.09
2023-03-15T00:38:05.465Z,3.11
2023-03-15T00:40:50.829Z,3.08
2023-03-15T00:43:36.250Z,3.06
2023-03-15T00:46:21.451Z,3.12
2023-03-15T00:49:06.570Z,3.09
2023-03-15T00:51:54.980Z,3.09
2023-03-15T00:54:41.776Z,3.16
2023-03-15T00:57:27.262Z,3.08
2023-03-15T01:00:20.506Z,3.04
2023-03-15T01:03:05.534Z,3.03
2023-03-15T01:05:51.036Z,3.04
2023-03-15T01:08:36.361Z,3.05
2023-03-15T01:11:24.308Z,3.05
2023-03-15T01:14:09.939Z,3.09
2023-03-15T01:16:55.580Z,3.11
2023-03-15T01:19:40.462Z,3.11
2023-03-15T01:22:26.788Z,3.11
2023-03-15T01:25:12.156Z,3.11
2023-03-15T01:27:59.042Z,3.11
2023-03-15T01:30:54.245Z,3.09
2023-03-15T01:33:40.782Z,3.09
2023-03-15T01:36:25.959Z,3.04
2023-03-15T01:39:11.531Z,3.03
2023-03-15T01:41:59.706Z,3.00
2023-03-15T01:44:50.662Z,3.02
2023-03-15T01:47:36.224Z,3.06
2023-03-15T01:50:25.350Z,3.03
2023-03-15T01:53:11.487Z,3.03
2023-03-15T01:55:58.133Z,3.02
2023-03-15T01:58:53.684Z,3.00
2023-03-15T02:01:45.454Z,2.97
2023-03-15T02:04:36.315Z,3.00
2023-03-15T02:07:24.758Z,3.02
2023-03-15T02:10:14.516Z,3.02
2023-03-15T02:13:03.615Z,3.03
2023-03-15T02:15:49.412Z,3.03
2023-03-15T02:18:43.228Z,3.02
2023-03-15T02:21:56.594Z,3.01
2023-03-15T02:24:55.077Z,2.98
2023-03-15T02:27:44.639Z,2.96
2023-03-15T02:30:30.075Z,2.94
2023-03-15T02:33:25.061Z,2.92
2023-03-15T02:36:19.847Z,2.89
2023-03-15T02:39:20.712Z,2.89
2023-03-15T02:42:06.162Z,2.85
2023-03-15T02:44:51.680Z,2.81
2023-03-15T02:47:38.342Z,2.78
2023-03-15T02:50:23.617Z,2.82
2023-03-15T02:53:10.011Z,2.81
2023-03-15T02:55:55.200Z,2.79
2023-03-15T02:58:40.814Z,2.79
2023-03-15T03:01:26.475Z,2.79
2023-03-15T03:04:11.613Z,2.77
2023-03-15T03:06:57.521Z,2.80
2023-03-15T03:09:51.077Z,2.83
2023-03-15T03:12:38.128Z,2.80
2023-03-15T03:15:23.298Z,2.80
2023-03-15T03:18:08.864Z,2.83
2023-03-15T03:20:59.080Z,2.86
2023-03-15T03:23:46.215Z,2.89
2023-03-15T03:26:32.745Z,2.95
2023-03-15T03:29:18.420Z,3.01
2023-03-15T03:32:06.491Z,3.09
2023-03-15T03:34:51.694Z,3.10
2023-03-15T03:37:40.184Z,3.18
2023-03-15T03:40:31.782Z,3.26
2023-03-15T03:43:17.129Z,3.32
2023-03-15T03:46:03.718Z,3.33
2023-03-15T03:48:50.530Z,3.31
2023-03-15T03:51:36.298Z,3.26
2023-03-15T03:54:21.780Z,3.21
2023-03-15T03:57:07.054Z,3.16
2023-03-15T03:59:54.184Z,3.13
2023-03-15T04:02:42.577Z,3.10
2023-03-15T04:05:29.182Z,3.10
2023-03-15T04:08:14.431Z,3.08
2023-03-15T04:10:59.906Z,3.09
2023-03-15T04:13:48.116Z,3.09
2023-03-15T04:16:33.250Z,3.08
2023-03-15T04:19:21.782Z,3.06
2023-03-15T04:22:10.187Z,3.04
2023-03-15T04:25:19.577Z,2.97
2023-03-15T04:28:30.820Z,2.95
2023-03-15T04:31:28.497Z,2.96
2023-03-15T04:34:39.752Z,2.94
2023-03-15T04:37:32.550Z,2.94
2023-03-15T04:40:36.256Z,2.91
2023-03-15T04:43:47.632Z,2.87
2023-03-15T04:46:44.493Z,2.88
2023-03-15T04:50:09.689Z,2.83
2023-03-15T04:53:10.693Z,2.83
2023-03-15T04:56:06.918Z,2.79
2023-03-15T04:59:14.038Z,2.77
2023-03-15T05:02:28.596Z,2.74
2023-03-15T05:05:26.445Z,2.70
2023-03-15T05:08:24.089Z,2.73
2023-03-15T05:11:27.916Z,2.68
2023-03-15T05:14:42.188Z,2.65
2023-03-15T05:17:48.592Z,2.59
2023-03-15T05:21:05.985Z,2.60
2023-03-15T05:24:17.242Z,2.66
2023-03-15T05:27:25.281Z,2.71
2023-03-15T05:30:31.271Z,2.80
2023-03-15T05:33:36.036Z,2.88
2023-03-15T05:36:47.540Z,2.92
2023-03-15T05:39:51.847Z,2.98
2023-03-15T05:43:00.363Z,3.02
2023-03-15T05:45:59.393Z,3.05
2023-03-15T05:48:56.699Z,3.07
2023-03-15T05:51:56.608Z,3.11
2023-03-15T05:55:01.703Z,3.15
2023-03-15T05:57:58.859Z,3.16
2023-03-15T06:01:12.959Z,3.14
2023-03-15T06:04:15.417Z,3.07
2023-03-15T06:07:00.659Z,3.07
2023-03-15T06:09:47.002Z,3.16
2023-03-15T06:12:32.705Z,3.28
2023-03-15T06:15:19.740Z,3.42
2023-03-15T06:18:06.297Z,3.55
2023-03-15T06:20:51.525Z,3.58
2023-03-15T06:23:37.940Z,3.63
2023-03-15T06:26:23.312Z,3.65
2023-03-15T06:29:13.744Z,3.69
2023-03-15T06:31:58.885Z,3.63
2023-03-15T06:34:45.833Z,3.48
2023-03-15T06:37:35.593Z,3.35
2023-03-15T06:40:21.571Z,3.28
2023-03-15T06:43:08.209Z,3.20
2023-03-15T06:45:55.857Z,3.24
2023-03-15T06:48:41.956Z,3.21
2023-03-15T06:51:29.478Z,3.20
2023-03-15T06:54:14.744Z,3.26
2023-03-15T06:57:00.217Z,3.28
2023-03-15T06:59:45.502Z,3.28
2023-03-15T07:02:36.933Z,3.37
2023-03-15T07:05:22.385Z,3.42
2023-03-15T07:08:07.901Z,3.41
2023-03-15T07:10:53.274Z,3.56
2023-03-15T07:13:38.372Z,3.76
2023-03-15T07:16:24.284Z,3.93
2023-03-15T07:19:09.516Z,3.98
2023-03-15T07:21:54.989Z,4.04
2023-03-15T07:24:40.732Z,4.13
2023-03-15T07:27:26.079Z,4.18
2023-03-15T07:30:11.939Z,4.34
2023-03-15T07:32:57.149Z,4.42
2023-03-15T07:35:42.546Z,4.44
2023-03-15T07:38:31.275Z,4.41
2023-03-15T07:41:16.574Z,4.38
2023-03-15T07:44:13.675Z,4.37
2023-03-15T07:46:59.120Z,4.43
2023-03-15T07:49:44.247Z,4.50
2023-03-15T07:52:29.621Z,4.52
2023-03-15T07:55:15.182Z,4.49
2023-03-15T07:58:01.675Z,4.42
2023-03-15T08:00:47.183Z,4.41
2023-03-15T08:03:32.810Z,4.56
2023-03-15T08:06:18.370Z,4.61
2023-03-15T08:09:05.651Z,4.66
2023-03-15T08:11:51.306Z,4.66
2023-03-15T08:14:37.156Z,4.66
2023-03-15T08:17:22.730Z,4.72
2023-03-15T08:20:11.539Z,4.75
2023-03-15T08:22:56.820Z,4.71
2023-03-15T08:25:44.086Z,4.67
2023-03-15T08:28:29.576Z,4.67
2023-03-15T08:31:15.053Z,4.67
2023-03-15T08:34:00.254Z,4.73
2023-03-15T08:36:48.816Z,4.81
2023-03-15T08:39:36.210Z,4.86
2023-03-15T08:42:22.035Z,4.97
2023-03-15T08:45:08.310Z,5.09
2023-03-15T08:48:01.318Z,5.10
2023-03-15T08:50:46.583Z,5.09
2023-03-15T08:53:32.346Z,5.10
2023-03-15T08:56:17.490Z,5.10
2023-03-15T08:59:02.744Z,5.09
2023-03-15T09:01:48.394Z,4.97
2023-03-15T09:04:34.279Z,5.09
2023-03-15T09:07:20.630Z,5.10
2023-03-15T09:10:06.172Z,5.05
2023-03-15T09:12:53.595Z,5.06
2023-03-15T09:15:39.067Z,5.04
2023-03-15T09:18:24.891Z,4.96
2023-03-15T09:21:10.821Z,4.95
2023-03-15T09:23:56.226Z,5.02
2023-03-15T09:26:41.543Z,4.95
2023-03-15T09:29:27.121Z,4.88
2023-03-15T09:32:14.078Z,4.77
2023-03-15T09:34:59.417Z,4.81
2023-03-15T09:37:44.912Z,4.90
2023-03-15T09:40:33.901Z,4.98
2023-03-15T09:43:44.006Z,5.15
2023-03-15T09:46:44.585Z,5.35
2023-03-15T09:49:45.278Z,5.44
2023-03-15T09:52:41.153Z,5.44
2023-03-15T09:55:28.693Z,5.37
2023-03-15T09:58:21.225Z,5.38
2023-03-15T10:01:12.760Z,5.58
2023-03-15T10:03:59.729Z,5.78
2023-03-15T10:06:51.908Z,5.82
2023-03-15T10:09:37.581Z,5.65
2023-03-15T10:12:29.513Z,5.73
2023-03-15T10:15:20.741Z,5.93
2023-03-15T10:18:12.162Z,5.92
2023-03-15T10:21:07.505Z,5.95
2023-03-15T10:23:54.215Z,5.85
2023-03-15T10:26:39.929Z,5.93
2023-03-15T10:29:26.850Z,6.44
2023-03-15T10:32:17.913Z,6.59
2023-03-15T10:35:14.037Z,6.67
2023-03-15T10:37:59.393Z,6.64
2023-03-15T10:40:45.795Z,6.62
2023-03-15T10:43:36.790Z,6.96
2023-03-15T10:46:23.820Z,7.34
2023-03-15T10:49:16.090Z,7.35
2023-03-15T10:52:01.398Z,7.04
2023-03-15T10:54:50.075Z,6.96
2023-03-15T10:57:41.317Z,6.90
2023-03-15T11:00:31.741Z,6.93
2023-03-15T11:03:16.854Z,7.10
2023-03-15T11:06:03.031Z,6.48
2023-03-15T11:08:48.742Z,6.35
2023-03-15T11:11:58.916Z,6.66
2023-03-15T11:14:48.660Z,6.91
2023-03-15T11:17:42.228Z,6.75
2023-03-15T11:20:36.381Z,7.06
2023-03-15T11:23:26.353Z,7.24
2023-03-15T11:26:38.511Z,7.24
2023-03-15T11:29:31.593Z,7.34
2023-03-15T11:32:21.320Z,7.19
2023-03-15T11:35:13.909Z,7.23
2023-03-15T11:38:15.181Z,6.88
2023-03-15T11:41:23.994Z,6.80
2023-03-15T11:44:33.929Z,6.85
2023-03-15T11:47:45.534Z,6.73
2023-03-15T11:50:33.194Z,6.98
2023-03-15T11:53:18.532Z,7.21
2023-03-15T11:56:39.933Z,7.19
2023-03-15T11:59:38.046Z,7.64
2023-03-15T12:02:23.205Z,7.80
2023-03-15T12:05:44.691Z,7.50
2023-03-15T12:08:38.794Z,7.13
2023-03-15T12:11:24.490Z,7.09
2023-03-15T12:14:29.979Z,7.18
2023-03-15T12:17:24.595Z,7.44
2023-03-15T12:20:17.694Z,7.72
2023-03-15T12:23:13.179Z,7.76
2023-03-15T12:26:06.885Z,7.85
2023-03-15T12:29:00.979Z,7.96
2023-03-15T12:32:08.730Z,7.97
2023-03-15T12:34:57.691Z,7.92
2023-03-15T12:37:46.235Z,7.87
2023-03-15T12:40:38.857Z,7.51
2023-03-15T12:43:46.105Z,7.20
2023-03-15T12:46:54.288Z,7.03
2023-03-15T12:49:45.005Z,7.13
2023-03-15T12:52:41.874Z,7.30
2023-03-15T12:55:35.625Z,7.18
2023-03-15T12:58:28.530Z,6.98
2023-03-15T13:01:16.808Z,6.89
2023-03-15T13:04:03.861Z,6.83
2023-03-15T13:07:24.657Z,6.70
2023-03-15T13:10:31.342Z,6.62
2023-03-15T13:13:44.976Z,6.60
2023-03-15T13:16:44.423Z,6.64
2023-03-15T13:19:41.736Z,6.58
2023-03-15T13:22:49.947Z,6.70
2023-03-15T13:26:23.303Z,7.01
2023-03-15T13:29:17.468Z,7.24
2023-03-15T13:32:15.513Z,7.50
2023-03-15T13:35:02.084Z,7.52
2023-03-15T13:37:47.367Z,7.44
2023-03-15T13:40:33.014Z,7.46
2023-03-15T13:43:18.269Z,7.41
2023-03-15T13:46:03.934Z,7.36
2023-03-15T13:48:50.645Z,7.22
2023-03-15T13:51:39.225Z,6.93
2023-03-15T13:54:30.691Z,6.58
2023-03-15T13:57:20.327Z,6.30
2023-03-15T14:00:12.322Z,6.24
2023-03-15T14:03:01.611Z,6.35
2023-03-15T14:05:49.686Z,6.40
2023-03-15T14:08:38.974Z,6.37
2023-03-15T14:11:24.197Z,6.41
2023-03-15T14:14:21.619Z,6.51
2023-03-15T14:17:25.012Z,6.59
2023-03-15T14:20:16.412Z,6.58
2023-03-15T14:23:04.367Z,6.59
2023-03-15T14:25:54.913Z,6.65
2023-03-15T14:28:41.579Z,6.74
2023-03-15T14:31:30.570Z,6.80
2023-03-15T14:34:33.522Z,6.78
2023-03-15T14:37:31.054Z,6.81
2023-03-15T14:40:20.126Z,6.85
2023-03-15T14:43:07.673Z,6.86
2023-03-15T14:45:54.053Z,6.86
2023-03-15T14:48:39.924Z,6.83
2023-03-15T14:51:28.416Z,6.74
2023-03-15T14:54:13.771Z,6.75
2023-03-15T14:56:58.988Z,6.79
2023-03-15T14:59:44.154Z,6.76
2023-03-15T15:02:29.838Z,6.72
2023-03-15T15:05:29.207Z,6.72
2023-03-15T15:08:16.278Z,6.80
2023-03-15T15:11:02.660Z,6.87
2023-03-15T15:13:48.479Z,6.88
2023-03-15T15:16:34.063Z,6.85
2023-03-15T15:19:19.586Z,6.81
2023-03-15T15:22:04.950Z,6.71
2023-03-15T15:24:51.450Z,6.69
2023-03-15T15:27:36.553Z,6.68
2023-03-15T15:30:24.922Z,6.66
2023-03-15T15:33:11.565Z,6.60
2023-03-15T15:35:57.934Z,6.51
2023-03-15T15:38:43.668Z,6.49
2023-03-15T15:41:31.376Z,6.49
2023-03-15T15:44:19.375Z,6.47
2023-03-15T15:47:07.256Z,6.49
2023-03-15T15:49:52.395Z,6.48
2023-03-15T15:52:40.564Z,6.54
2023-03-15T15:55:28.937Z,6.59
2023-03-15T15:58:15.198Z,6.62
2023-03-15T16:01:00.640Z,6.62
2023-03-15T16:03:45.893Z,6.61
2023-03-15T16:06:31.700Z,6.59
2023-03-15T16:09:18.675Z,6.43
2023-03-15T16:12:12.931Z,5.72
2023-03-15T16:14:58.803Z,4.83
2023-03-15T16:17:45.214Z,4.30
2023-03-15T16:20:30.431Z,3.98
2023-03-15T16:23:21.872Z,3.97
2023-03-15T16:26:16.200Z,4.08
2023-03-15T16:29:02.606Z,4.12
2023-03-15T16:31:48.439Z,4.16
2023-03-15T16:34:34.534Z,4.08
2023-03-15T16:37:26.129Z,4.02
2023-03-15T16:40:25.329Z,3.96
2023-03-15T16:43:14.523Z,3.99
2023-03-15T16:45:59.932Z,4.01
2023-03-15T16:48:45.201Z,3.96
2023-03-15T16:51:31.664Z,3.91
2023-03-15T16:54:30.523Z,3.96
2023-03-15T16:57:22.718Z,3.99
2023-03-15T17:00:18.351Z,3.92
2023-03-15T17:03:04.487Z,3.95
2023-03-15T17:05:49.730Z,4.02
2023-03-15T17:08:35.059Z,4.10
2023-03-15T17:11:20.257Z,4.18
2023-03-15T17:14:07.247Z,4.21
2023-03-15T17:16:53.056Z,4.24
2023-03-15T17:19:38.416Z,4.28
2023-03-15T17:22:25.406Z,4.33
2023-03-15T17:25:11.715Z,4.31
2023-03-15T17:27:57.043Z,4.28
2023-03-15T17:30:42.617Z,4.50
2023-03-15T17:33:27.745Z,4.58
2023-03-15T17:36:14.744Z,4.77
2023-03-15T17:39:00.151Z,4.96
2023-03-15T17:41:48.255Z,4.83
2023-03-15T17:44:33.589Z,4.66
2023-03-15T17:47:19.160Z,4.50
2023-03-15T17:50:04.763Z,4.39
2023-03-15T17:52:55.251Z,4.31
2023-03-15T17:55:40.808Z,4.28
2023-03-15T17:58:27.312Z,4.26
2023-03-15T18:01:16.271Z,4.24
2023-03-15T18:04:01.316Z,4.23
2023-03-15T18:06:46.635Z,4.22
2023-03-15T18:09:31.981Z,4.23
2023-03-15T18:12:18.200Z,4.18
2023-03-15T18:15:05.102Z,4.21
2023-03-15T18:17:50.840Z,4.18
2023-03-15T18:20:36.477Z,4.24
2023-03-15T18:23:21.623Z,4.20
2023-03-15T18:26:07.155Z,4.15
2023-03-15T18:28:52.418Z,4.12
2023-03-15T18:31:37.662Z,4.14
2023-03-15T18:34:23.434Z,4.14
2023-03-15T18:37:09.700Z,4.10
2023-03-15T18:39:55.078Z,3.99
2023-03-15T18:42:41.658Z,4.01
2023-03-15T18:45:30.785Z,4.00
2023-03-15T18:48:18.353Z,3.97
2023-03-15T18:51:05.287Z,3.95
2023-03-15T18:53:50.823Z,3.94
2023-03-15T18:56:36.349Z,3.88
2023-03-15T18:59:22.082Z,3.88
2023-03-15T19:02:09.794Z,3.87
2023-03-15T19:04:57.990Z,3.90
2023-03-15T19:07:43.294Z,3.87
2023-03-15T19:10:28.603Z,3.78
2023-03-15T19:13:13.885Z,3.77
2023-03-15T19:15:59.224Z,3.81
2023-03-15T19:18:44.972Z,3.81
2023-03-15T19:21:29.993Z,3.78
2023-03-15T19:24:15.135Z,3.76
2023-03-15T19:27:00.621Z,3.78
2023-03-15T19:29:46.420Z,3.79
2023-03-15T19:32:31.448Z,3.76
2023-03-15T19:35:18.854Z,3.76
2023-03-15T19:38:04.100Z,3.75
2023-03-15T19:40:55.004Z,3.76
2023-03-15T19:43:43.300Z,3.72
2023-03-15T19:46:28.531Z,3.65
2023-03-15T19:49:13.936Z,3.66
2023-03-15T19:51:59.408Z,3.62
2023-03-15T19:54:44.522Z,3.58
2023-03-15T19:57:30.381Z,3.54
2023-03-15T20:00:18.412Z,3.53
2023-03-15T20:03:04.351Z,3.57
2023-03-15T20:05:49.913Z,3.58
2023-03-15T20:08:35.740Z,3.60
2023-03-15T20:11:25.003Z,3.63
2023-03-15T20:14:11.084Z,3.65
2023-03-15T20:16:56.306Z,3.64
2023-03-15T20:19:42.133Z,3.64
2023-03-15T20:22:27.511Z,3.66
2023-03-15T20:25:17.543Z,3.62
2023-03-15T20:28:04.268Z,3.63
2023-03-15T20:30:49.454Z,3.63
2023-03-15T20:33:35.683Z,3.60
2023-03-15T20:36:21.899Z,3.63
2023-03-15T20:39:07.925Z,3.63
2023-03-15T20:41:53.484Z,3.64
2023-03-15T20:44:41.475Z,3.65
2023-03-15T20:47:26.852Z,3.68
2023-03-15T20:50:13.235Z,3.68
2023-03-15T20:53:00.727Z,3.68
2023-03-15T20:55:45.897Z,3.69
2023-03-15T20:58:31.979Z,3.69
2023-03-15T21:01:17.728Z,3.66
2023-03-15T21:04:03.022Z,3.58
2023-03-15T21:06:49.505Z,3.55
2023-03-15T21:09:35.376Z,3.51
2023-03-15T21:12:20.721Z,3.51
2023-03-15T21:15:06.934Z,3.56
2023-03-15T21:17:52.923Z,3.56
2023-03-15T21:20:38.392Z,3.54
2023-03-15T21:23:24.170Z,3.49
2023-03-15T21:26:11.935Z,3.46
2023-03-15T21:28:57.395Z,3.48
2023-03-15T21:31:42.603Z,3.48
2023-03-15T21:34:28.355Z,3.48
2023-03-15T21:37:13.560Z,3.49
2023-03-15T21:40:00.100Z,3.50
2023-03-15T21:42:47.635Z,3.48
2023-03-15T21:45:33.212Z,3.47
2023-03-15T21:48:19.210Z,3.46
2023-03-15T21:51:05.597Z,3.41
2023-03-15T21:53:51.213Z,3.43
2023-03-15T21:56:36.360Z,3.42
2023-03-15T21:59:28.190Z,3.38
2023-03-15T22:02:14.157Z,3.33
2023-03-15T22:04:59.669Z,3.30
2023-03-15T22:07:44.865Z,3.31
2023-03-15T22:10:30.384Z,3.32
2023-03-15T22:13:15.656Z,3.31
2023-03-15T22:16:01.397Z,3.30
2023-03-15T22:18:47.018Z,3.32
2023-03-15T22:21:33.193Z,3.31
2023-03-15T22:24:18.524Z,3.31
2023-03-15T22:27:04.037Z,3.29
2023-03-15T22:29:49.469Z,3.27
2023-03-15T22:32:35.166Z,3.24
2023-03-15T22:35:20.484Z,3.21
2023-03-15T22:38:10.040Z,3.22
2023-03-15T22:41:04.170Z,3.20
2023-03-15T22:43:49.552Z,3.18
2023-03-15T22:46:35.935Z,3.14
2023-03-15T22:49:22.932Z,3.10
2023-03-15T22:52:08.651Z,3.08
2023-03-15T22:54:54.373Z,3.09
2023-03-15T22:57:39.872Z,3.07
2023-03-15T23:00:25.340Z,3.05
2023-03-15T23:03:11.495Z,3.05
2023-03-15T23:05:57.327Z,3.03
2023-03-15T23:08:42.783Z,2.99
2023-03-15T23:11:28.040Z,2.97
2023-03-15T23:14:13.472Z,2.97
2023-03-15T23:16:59.210Z,2.96
2023-03-15T23:19:44.844Z,2.94
2023-03-15T23:22:30.321Z,2.93
2023-03-15T23:25:21.478Z,2.93
2023-03-15T23:28:07.522Z,2.94
2023-03-15T23:30:52.678Z,2.95
2023-03-15T23:33:38.154Z,2.95
2023-03-15T23:36:23.532Z,2.93
2023-03-15T23:39:09.148Z,2.93
2023-03-15T23:41:57.781Z,2.93
2023-03-15T23:44:43.404Z,2.93
2023-03-15T23:47:28.762Z,2.91
2023-03-15T23:50:14.484Z,2.93
2023-03-15T23:52:59.594Z,2.92
2023-03-15T23:55:45.450Z,2.94
2023-03-15T23:58:30.982Z,2.92
